createdAt,value
2019-02-20T00:00:26.857Z,8.35
2019-02-20T00:02:55.872Z,7.80
2019-02-20T00:05:24.663Z,7.00
2019-02-20T00:07:53.507Z,8.30
2019-02-20T00:10:22.602Z,9.05
2019-02-20T00:12:51.446Z,9.13
2019-02-20T00:15:20.247Z,9.25
2019-02-20T00:17:49.021Z,8.48
2019-02-20T00:20:17.805Z,8.18
2019-02-20T00:22:46.574Z,7.33
2019-02-20T00:25:15.356Z,7.65
2019-02-20T00:27:44.091Z,7.20
2019-02-20T00:30:12.859Z,7.05
2019-02-20T00:32:41.684Z,6.50
2019-02-20T00:35:10.429Z,7.15
2019-02-20T00:37:39.298Z,7.50
2019-02-20T00:40:11.943Z,7.40
2019-02-20T00:42:40.709Z,7.28
2019-02-20T00:45:19.143Z,7.00
2019-02-20T00:47:58.274Z,6.10
2019-02-20T00:50:28.759Z,7.97
2019-02-20T00:52:59.284Z,7.87
2019-02-20T00:55:28.039Z,8.38
2019-02-20T00:57:57.072Z,7.05
2019-02-20T01:00:25.860Z,7.50
2019-02-20T01:02:54.593Z,7.70
2019-02-20T01:05:23.348Z,7.30
2019-02-20T01:07:52.206Z,8.58
2019-02-20T01:10:20.960Z,7.40
2019-02-20T01:12:50.008Z,7.90
2019-02-20T01:15:18.755Z,8.00
2019-02-20T01:17:47.494Z,9.40
2019-02-20T01:20:16.249Z,7.95
2019-02-20T01:22:45.033Z,7.80
2019-02-20T01:25:13.930Z,7.47
2019-02-20T01:27:42.763Z,8.98
2019-02-20T01:30:12.569Z,7.80
2019-02-20T01:32:41.332Z,8.20
2019-02-20T01:35:10.591Z,8.13
2019-02-20T01:37:39.396Z,8.68
2019-02-20T01:40:08.599Z,7.75
2019-02-20T01:42:37.329Z,7.37
2019-02-20T01:45:07.627Z,6.47
2019-02-20T01:47:36.406Z,6.87
2019-02-20T01:50:06.460Z,6.53
2019-02-20T01:52:35.245Z,5.37
2019-02-20T01:55:05.247Z,5.97
2019-02-20T01:57:33.986Z,5.83
2019-02-20T02:00:02.826Z,5.50
2019-02-20T02:02:31.613Z,5.83
2019-02-20T02:05:00.407Z,5.37
2019-02-20T02:07:29.245Z,5.37
2019-02-20T02:09:58.137Z,5.22
2019-02-20T02:12:26.947Z,5.17
2019-02-20T02:14:55.680Z,5.85
2019-02-20T02:17:24.415Z,4.87
2019-02-20T02:19:53.193Z,4.60
2019-02-20T02:22:21.938Z,4.75
2019-02-20T02:24:50.741Z,5.10
2019-02-20T02:27:19.465Z,5.00
2019-02-20T02:29:48.249Z,4.90
2019-02-20T02:32:17.027Z,5.25
2019-02-20T02:34:45.844Z,4.25
2019-02-20T02:37:14.621Z,5.03
2019-02-20T02:39:43.494Z,4.40
2019-02-20T02:42:12.278Z,3.70
2019-02-20T02:44:41.024Z,3.90
2019-02-20T02:47:09.770Z,4.70
2019-02-20T02:49:38.519Z,4.03
2019-02-20T02:52:07.344Z,4.05
2019-02-20T02:54:36.370Z,3.30
2019-02-20T02:57:05.211Z,3.30
2019-02-20T02:59:33.973Z,3.83
2019-02-20T03:02:02.727Z,3.70
2019-02-20T03:04:31.510Z,5.17
2019-02-20T03:07:00.273Z,3.87
2019-02-20T03:09:29.024Z,3.90
2019-02-20T03:11:57.768Z,3.52
2019-02-20T03:14:26.511Z,4.00
2019-02-20T03:16:55.228Z,4.03
2019-02-20T03:19:23.996Z,3.95
2019-02-20T03:21:52.821Z,4.08
2019-02-20T03:24:21.587Z,4.25
2019-02-20T03:26:50.416Z,4.20
2019-02-20T03:29:19.238Z,4.30
2019-02-20T03:31:47.989Z,5.20
2019-02-20T03:34:16.826Z,5.00
2019-02-20T03:36:45.620Z,4.42
2019-02-20T03:39:14.444Z,4.72
2019-02-20T03:41:43.923Z,4.90
2019-02-20T03:44:13.452Z,5.17
2019-02-20T03:46:42.237Z,4.55
2019-02-20T03:49:11.921Z,5.47
2019-02-20T03:51:40.741Z,4.85
2019-02-20T03:54:09.498Z,5.00
2019-02-20T03:56:38.326Z,5.80
2019-02-20T03:59:07.137Z,5.62
2019-02-20T04:01:35.913Z,5.37
2019-02-20T04:04:04.970Z,5.08
2019-02-20T04:06:33.809Z,4.90
2019-02-20T04:09:02.757Z,5.65
2019-02-20T04:11:31.590Z,5.53
2019-02-20T04:14:00.420Z,5.05
2019-02-20T04:16:29.269Z,6.50
2019-02-20T04:18:58.218Z,6.03
2019-02-20T04:21:28.544Z,6.15
2019-02-20T04:24:02.510Z,5.75
2019-02-20T04:26:27.913Z,6.25
2019-02-20T04:28:56.662Z,5.62
2019-02-20T04:31:28.406Z,7.35
2019-02-20T04:33:57.152Z,6.97
2019-02-20T04:36:25.917Z,6.08
2019-02-20T04:38:54.785Z,6.60
2019-02-20T04:41:23.592Z,7.55
2019-02-20T04:43:52.587Z,9.78
2019-02-20T04:46:21.374Z,7.65
2019-02-20T04:48:50.158Z,7.95
2019-02-20T04:51:18.973Z,7.30
2019-02-20T04:53:47.737Z,7.85
2019-02-20T04:56:16.541Z,7.75
2019-02-20T04:58:46.467Z,7.37
2019-02-20T05:01:15.329Z,7.50
2019-02-20T05:03:44.113Z,7.40
2019-02-20T05:06:12.936Z,7.35
2019-02-20T05:08:41.656Z,7.50
2019-02-20T05:11:10.416Z,8.08
2019-02-20T05:13:39.343Z,7.58
2019-02-20T05:16:08.093Z,8.10
2019-02-20T05:18:37.117Z,8.45
2019-02-20T05:21:05.874Z,7.90
2019-02-20T05:23:34.825Z,7.53
2019-02-20T05:26:03.690Z,7.33
2019-02-20T05:28:32.705Z,8.48
2019-02-20T05:31:01.451Z,14.78
2019-02-20T05:33:30.227Z,7.50
2019-02-20T05:35:59.071Z,9.00
2019-02-20T05:38:27.832Z,7.97
2019-02-20T05:40:56.629Z,8.10
2019-02-20T05:43:25.697Z,25.95
2019-02-20T05:45:54.666Z,7.75
2019-02-20T05:48:23.663Z,7.83
2019-02-20T05:50:52.408Z,6.80
2019-02-20T05:53:21.198Z,7.83
2019-02-20T05:55:50.103Z,9.03
2019-02-20T05:58:18.868Z,10.05
2019-02-20T06:00:47.724Z,8.03
2019-02-20T06:03:16.485Z,8.03
2019-02-20T06:05:45.305Z,7.75
2019-02-20T06:08:14.073Z,9.08
2019-02-20T06:10:43.103Z,8.58
2019-02-20T06:13:11.942Z,8.13
2019-02-20T06:15:42.587Z,7.35
2019-02-20T06:18:11.378Z,8.78
2019-02-20T06:20:40.152Z,8.00
2019-02-20T06:23:08.910Z,8.85
2019-02-20T06:25:37.681Z,8.63
2019-02-20T06:28:06.422Z,8.35
2019-02-20T06:30:35.206Z,8.03
2019-02-20T06:33:04.173Z,8.65
2019-02-20T06:35:33.079Z,8.50
2019-02-20T06:38:02.022Z,8.45
2019-02-20T06:40:31.108Z,8.20
2019-02-20T06:43:00.171Z,7.92
2019-02-20T06:45:29.283Z,8.38
2019-02-20T06:47:58.070Z,9.23
2019-02-20T06:50:26.878Z,8.58
2019-02-20T06:52:55.703Z,7.55
2019-02-20T06:55:24.470Z,8.55
2019-02-20T06:57:53.250Z,7.85
2019-02-20T07:00:22.010Z,9.05
2019-02-20T07:02:50.821Z,7.90
2019-02-20T07:05:36.175Z,7.62
2019-02-20T07:08:22.984Z,7.95
2019-02-20T07:11:23.220Z,9.48
2019-02-20T07:14:19.154Z,8.63
2019-02-20T07:17:18.120Z,8.25
2019-02-20T07:19:52.577Z,8.75
2019-02-20T07:22:42.052Z,7.65
2019-02-20T07:25:22.916Z,7.53
2019-02-20T07:28:27.999Z,7.58
2019-02-20T07:30:56.820Z,7.00
2019-02-20T07:33:25.653Z,8.53
2019-02-20T07:35:54.520Z,8.43
2019-02-20T07:38:23.373Z,8.05
2019-02-20T07:40:52.372Z,7.87
2019-02-20T07:43:21.143Z,7.30
2019-02-20T07:45:49.927Z,7.83
2019-02-20T07:48:18.778Z,8.10
2019-02-20T07:50:47.517Z,7.55
2019-02-20T07:53:16.296Z,7.17
2019-02-20T07:55:45.092Z,6.92
2019-02-20T07:58:14.667Z,9.18
2019-02-20T08:00:43.494Z,7.25
2019-02-20T08:03:12.253Z,6.50
2019-02-20T08:05:41.045Z,7.60
2019-02-20T08:08:09.872Z,6.55
2019-02-20T08:10:38.643Z,6.42
2019-02-20T08:13:09.416Z,7.78
2019-02-20T08:15:38.190Z,6.60
2019-02-20T08:18:07.066Z,6.92
2019-02-20T08:20:35.805Z,7.75
2019-02-20T08:23:04.649Z,7.25
2019-02-20T08:25:33.416Z,5.97
2019-02-20T08:28:02.269Z,7.03
2019-02-20T08:30:31.016Z,7.53
2019-02-20T08:32:59.831Z,7.22
2019-02-20T08:35:28.612Z,7.58
2019-02-20T08:37:57.390Z,7.80
2019-02-20T08:40:26.145Z,7.75
2019-02-20T08:42:54.964Z,7.47
2019-02-20T08:45:23.737Z,6.80
2019-02-20T08:47:52.563Z,7.83
2019-02-20T08:50:21.297Z,7.95
2019-02-20T08:52:50.065Z,6.83
2019-02-20T08:55:19.066Z,7.53
2019-02-20T08:57:47.949Z,8.00
2019-02-20T09:00:16.680Z,7.20
2019-02-20T09:02:45.453Z,8.90
2019-02-20T09:05:14.190Z,7.60
2019-02-20T09:07:42.982Z,7.20
2019-02-20T09:10:12.892Z,8.00
2019-02-20T09:12:41.670Z,8.35
2019-02-20T09:15:12.482Z,7.28
2019-02-20T09:17:41.322Z,7.80
2019-02-20T09:20:11.640Z,7.72
2019-02-20T09:22:40.426Z,7.47
2019-02-20T09:25:19.172Z,7.15
2019-02-20T09:27:41.263Z,8.50
2019-02-20T09:30:14.571Z,8.10
2019-02-20T09:32:43.419Z,7.90
2019-02-20T09:35:12.174Z,7.72
2019-02-20T09:37:40.930Z,8.00
2019-02-20T09:40:18.538Z,7.70
2019-02-20T09:42:52.359Z,8.43
2019-02-20T09:45:21.423Z,7.37
2019-02-20T09:47:50.225Z,8.03
2019-02-20T09:50:18.989Z,8.80
2019-02-20T09:52:52.304Z,7.87
2019-02-20T09:55:18.726Z,7.28
2019-02-20T09:57:47.608Z,7.90
2019-02-20T10:00:20.085Z,8.30
2019-02-20T10:02:48.878Z,7.70
2019-02-20T10:05:17.722Z,8.08
2019-02-20T10:07:46.499Z,6.83
2019-02-20T10:10:15.285Z,7.28
2019-02-20T10:12:44.079Z,8.35
2019-02-20T10:15:15.173Z,8.25
2019-02-20T10:17:43.953Z,10.30
2019-02-20T10:20:12.859Z,10.45
2019-02-20T10:22:41.591Z,7.62
2019-02-20T10:25:12.477Z,8.75
2019-02-20T10:27:41.325Z,9.15
2019-02-20T10:30:15.571Z,8.48
2019-02-20T10:32:44.376Z,9.00
2019-02-20T10:35:13.293Z,9.28
2019-02-20T10:37:42.146Z,7.35
2019-02-20T10:40:11.653Z,7.28
2019-02-20T10:42:40.546Z,8.00
2019-02-20T10:45:11.493Z,7.78
2019-02-20T10:47:40.267Z,8.83
2019-02-20T10:50:10.941Z,8.80
2019-02-20T10:52:39.710Z,8.88
2019-02-20T10:55:10.157Z,9.08
2019-02-20T10:57:38.943Z,8.88
2019-02-20T11:00:23.161Z,8.35
2019-02-20T11:02:42.914Z,8.18
2019-02-20T11:05:11.666Z,8.33
2019-02-20T11:07:40.472Z,8.78
2019-02-20T11:10:09.242Z,9.23
2019-02-20T11:12:38.094Z,9.43
2019-02-20T11:15:07.822Z,7.87
2019-02-20T11:17:37.356Z,8.35
2019-02-20T11:20:09.281Z,8.33
2019-02-20T11:22:38.132Z,7.12
2019-02-20T11:25:09.670Z,8.13
2019-02-20T11:27:39.577Z,9.23
2019-02-20T11:30:20.216Z,8.63
2019-02-20T11:32:48.989Z,7.90
2019-02-20T11:35:17.771Z,9.03
2019-02-20T11:37:46.617Z,9.98
2019-02-20T11:40:15.353Z,8.68
2019-02-20T11:42:46.052Z,11.25
2019-02-20T11:45:17.803Z,9.15
2019-02-20T11:47:46.543Z,10.25
2019-02-20T11:50:15.347Z,9.48
2019-02-20T11:52:44.147Z,9.40
2019-02-20T11:55:14.437Z,9.15
2019-02-20T11:57:43.221Z,9.00
2019-02-20T12:00:16.593Z,9.63
2019-02-20T12:02:45.392Z,8.93
2019-02-20T12:05:14.235Z,11.85
2019-02-20T12:07:43.421Z,8.65
2019-02-20T12:10:14.937Z,9.68
2019-02-20T12:12:43.862Z,9.85
2019-02-20T12:15:12.714Z,9.43
2019-02-20T12:17:41.543Z,9.75
2019-02-20T12:20:10.488Z,8.95
2019-02-20T12:22:39.229Z,9.65
2019-02-20T12:25:10.020Z,9.45
2019-02-20T12:27:38.849Z,9.75
2019-02-20T12:30:10.025Z,8.58
2019-02-20T12:32:38.548Z,9.70
2019-02-20T12:35:08.423Z,8.70
2019-02-20T12:37:36.951Z,9.80
2019-02-20T12:40:07.738Z,9.25
2019-02-20T12:42:36.472Z,8.00
2019-02-20T12:45:07.241Z,9.35
2019-02-20T12:47:36.041Z,8.65
2019-02-20T12:50:07.516Z,8.35
2019-02-20T12:52:36.372Z,8.15
2019-02-20T12:55:06.722Z,7.67
2019-02-20T12:57:35.526Z,8.25
2019-02-20T13:00:07.078Z,7.85
2019-02-20T13:02:36.149Z,8.73
2019-02-20T13:05:06.336Z,8.35
2019-02-20T13:07:35.447Z,8.40
2019-02-20T13:10:04.531Z,8.50
2019-02-20T13:12:33.316Z,9.00
2019-02-20T13:15:02.089Z,8.90
2019-02-20T13:17:31.086Z,6.15
2019-02-20T13:19:59.832Z,7.90
2019-02-20T13:22:28.606Z,8.38
2019-02-20T13:24:57.349Z,8.58
2019-02-20T13:27:26.374Z,9.35
2019-02-20T13:29:55.208Z,7.20
2019-02-20T13:32:23.984Z,8.40
2019-02-20T13:34:52.800Z,8.43
2019-02-20T13:37:21.674Z,9.20
2019-02-20T13:39:52.117Z,9.40
2019-02-20T13:42:20.918Z,10.48
2019-02-20T13:44:49.766Z,8.43
2019-02-20T13:47:18.612Z,9.60
2019-02-20T13:49:49.288Z,10.38
2019-02-20T13:52:18.133Z,9.03
2019-02-20T13:54:46.931Z,9.13
2019-02-20T13:57:16.250Z,8.65
2019-02-20T13:59:45.338Z,8.78
2019-02-20T14:02:14.188Z,10.00
2019-02-20T14:04:42.965Z,9.73
2019-02-20T14:07:11.853Z,8.93
2019-02-20T14:09:40.693Z,9.30
2019-02-20T14:12:09.771Z,10.72
2019-02-20T14:14:38.780Z,8.60
2019-02-20T14:17:07.891Z,9.03
2019-02-20T14:19:36.732Z,8.55
2019-02-20T14:22:05.572Z,7.75
2019-02-20T14:24:34.413Z,8.75
2019-02-20T14:27:10.487Z,9.90
2019-02-20T14:29:33.742Z,11.35
2019-02-20T14:32:02.553Z,11.10
2019-02-20T14:34:31.318Z,10.00
2019-02-20T14:37:00.063Z,9.33
2019-02-20T14:39:28.921Z,9.13
2019-02-20T14:41:57.806Z,10.10
2019-02-20T14:44:26.589Z,8.78
2019-02-20T14:46:55.654Z,9.08
2019-02-20T14:49:24.461Z,9.73
2019-02-20T14:51:53.274Z,8.58
2019-02-20T14:54:22.144Z,9.53
2019-02-20T14:56:51.198Z,9.35
2019-02-20T14:59:19.944Z,9.40
2019-02-20T15:01:49.109Z,8.70
2019-02-20T15:04:17.924Z,8.45
2019-02-20T15:06:46.702Z,9.28
2019-02-20T15:09:15.553Z,8.78
2019-02-20T15:11:44.418Z,8.90
2019-02-20T15:14:13.261Z,9.80
2019-02-20T15:16:42.110Z,9.45
2019-02-20T15:19:11.069Z,9.18
2019-02-20T15:21:39.884Z,9.28
2019-02-20T15:24:08.691Z,11.30
2019-02-20T15:26:37.490Z,9.15
2019-02-20T15:29:06.247Z,8.68
2019-02-20T15:31:35.054Z,9.33
2019-02-20T15:34:04.932Z,9.25
2019-02-20T15:36:33.854Z,9.65
2019-02-20T15:39:02.814Z,11.38
2019-02-20T15:41:34.831Z,8.30
2019-02-20T15:44:03.605Z,9.18
2019-02-20T15:46:32.453Z,9.23
2019-02-20T15:49:01.260Z,8.80
2019-02-20T15:51:30.135Z,8.63
2019-02-20T15:53:58.952Z,9.88
2019-02-20T15:56:27.746Z,8.60
2019-02-20T15:58:56.565Z,8.88
2019-02-20T16:01:25.307Z,8.85
2019-02-20T16:03:54.174Z,8.30
2019-02-20T16:06:23.178Z,9.20
2019-02-20T16:08:52.086Z,9.38
2019-02-20T16:11:20.974Z,9.13
2019-02-20T16:13:50.207Z,8.63
2019-02-20T16:16:19.053Z,8.55
2019-02-20T16:18:47.918Z,9.73
2019-02-20T16:21:16.729Z,9.13
2019-02-20T16:23:45.566Z,9.83
2019-02-20T16:26:14.483Z,9.40
2019-02-20T16:28:43.310Z,9.98
2019-02-20T16:31:12.253Z,9.60
2019-02-20T16:33:41.153Z,10.90
2019-02-20T16:36:09.963Z,9.50
2019-02-20T16:38:39.083Z,9.25
2019-02-20T16:41:08.159Z,10.65
2019-02-20T16:43:36.961Z,11.00
2019-02-20T16:46:05.931Z,12.45
2019-02-20T16:48:34.775Z,11.95
2019-02-20T16:51:03.640Z,9.88
2019-02-20T16:53:32.456Z,9.38
2019-02-20T16:56:01.758Z,9.45
2019-02-20T16:58:30.652Z,9.80
2019-02-20T17:00:59.465Z,9.40
2019-02-20T17:03:28.409Z,9.70
2019-02-20T17:05:57.220Z,9.78
2019-02-20T17:08:26.041Z,9.90
2019-02-20T17:10:55.375Z,9.88
2019-02-20T17:13:24.203Z,10.05
2019-02-20T17:15:53.282Z,10.65
2019-02-20T17:18:22.064Z,9.88
2019-02-20T17:20:50.924Z,9.55
2019-02-20T17:23:19.740Z,8.50
2019-02-20T17:25:48.564Z,9.80
2019-02-20T17:28:17.553Z,9.38
2019-02-20T17:30:46.492Z,9.25
2019-02-20T17:33:15.289Z,9.83
2019-02-20T17:35:45.542Z,9.78
2019-02-20T17:38:14.302Z,10.25
2019-02-20T17:40:43.109Z,10.80
2019-02-20T17:43:12.024Z,9.45
2019-02-20T17:45:40.912Z,11.90
2019-02-20T17:48:09.803Z,9.98
2019-02-20T17:50:38.630Z,8.50
2019-02-20T17:53:07.781Z,9.30
2019-02-20T17:55:36.886Z,9.43
2019-02-20T17:58:14.532Z,9.18
2019-02-20T18:00:36.977Z,9.28
2019-02-20T18:03:05.980Z,8.73
2019-02-20T18:05:34.725Z,9.83
2019-02-20T18:08:03.484Z,8.60
2019-02-20T18:10:32.492Z,9.70
2019-02-20T18:13:01.269Z,8.30
2019-02-20T18:15:30.043Z,9.20
2019-02-20T18:17:58.908Z,9.50
2019-02-20T18:20:27.895Z,8.70
2019-02-20T18:22:56.703Z,8.75
2019-02-20T18:25:25.519Z,10.13
2019-02-20T18:27:54.520Z,8.90
2019-02-20T18:30:23.338Z,9.08
2019-02-20T18:32:52.325Z,8.78
2019-02-20T18:35:21.110Z,9.35
2019-02-20T18:37:49.964Z,8.63
2019-02-20T18:40:18.846Z,9.05
2019-02-20T18:42:47.721Z,9.63
2019-02-20T18:45:16.748Z,8.33
2019-02-20T18:47:45.502Z,8.45
2019-02-20T18:50:15.225Z,8.80
2019-02-20T18:52:44.093Z,10.15
2019-02-20T18:55:13.789Z,11.00
2019-02-20T18:57:42.636Z,9.48
2019-02-20T19:00:16.845Z,8.18
2019-02-20T19:02:45.628Z,8.48
2019-02-20T19:05:14.988Z,9.63
2019-02-20T19:07:43.891Z,10.90
2019-02-20T19:10:18.892Z,8.45
2019-02-20T19:13:05.758Z,8.80
2019-02-20T19:15:52.310Z,7.60
2019-02-20T19:18:32.914Z,8.75
2019-02-20T19:21:19.073Z,7.97
2019-02-20T19:24:07.274Z,7.70
2019-02-20T19:26:45.165Z,8.30
2019-02-20T19:29:26.039Z,9.33
2019-02-20T19:32:14.142Z,9.08
2019-02-20T19:34:49.044Z,10.60
2019-02-20T19:37:23.879Z,7.90
2019-02-20T19:39:58.714Z,8.60
2019-02-20T19:43:01.953Z,8.45
2019-02-20T19:45:45.971Z,7.35
2019-02-20T19:48:29.431Z,7.50
2019-02-20T19:51:03.977Z,7.95
2019-02-20T19:53:38.320Z,8.38
2019-02-20T19:56:15.773Z,9.08
2019-02-20T19:59:20.712Z,8.50
2019-02-20T20:02:10.544Z,8.65
2019-02-20T20:05:10.604Z,9.48
2019-02-20T20:07:42.531Z,8.18
2019-02-20T20:10:17.482Z,7.50
2019-02-20T20:12:52.533Z,9.20
2019-02-20T20:15:39.471Z,7.53
2019-02-20T20:18:30.623Z,7.05
2019-02-20T20:21:02.602Z,7.25
2019-02-20T20:23:59.903Z,7.10
2019-02-20T20:26:43.148Z,7.20
2019-02-20T20:29:20.491Z,6.83
2019-02-20T20:31:52.437Z,7.80
2019-02-20T20:34:39.743Z,7.53
2019-02-20T20:37:20.445Z,7.00
2019-02-20T20:39:55.101Z,7.25
2019-02-20T20:42:52.814Z,6.90
2019-02-20T20:45:33.645Z,7.20
2019-02-20T20:48:24.634Z,7.65
2019-02-20T20:51:05.248Z,6.75
2019-02-20T20:53:59.433Z,6.20
2019-02-20T20:56:40.034Z,7.50
2019-02-20T20:59:18.049Z,6.97
2019-02-20T21:01:50.227Z,6.60
2019-02-20T21:04:39.700Z,6.45
2019-02-20T21:07:23.233Z,6.40
2019-02-20T21:10:07.028Z,7.67
2019-02-20T21:12:50.664Z,7.45
2019-02-20T21:15:37.233Z,6.90
2019-02-20T21:18:15.184Z,7.20
2019-02-20T21:20:49.951Z,7.20
2019-02-20T21:23:44.177Z,6.12
2019-02-20T21:26:30.576Z,6.33
2019-02-20T21:29:14.499Z,5.92
2019-02-20T21:32:20.924Z,5.50
2019-02-20T21:35:13.664Z,6.90
2019-02-20T21:38:03.223Z,6.10
2019-02-20T21:40:52.950Z,5.60
2019-02-20T21:43:45.329Z,7.03
2019-02-20T21:46:33.280Z,5.80
2019-02-20T21:49:16.957Z,5.75
2019-02-20T21:52:07.900Z,5.67
2019-02-20T21:54:39.861Z,6.95
2019-02-20T21:57:14.461Z,5.90
2019-02-20T21:59:46.615Z,6.60
2019-02-20T22:02:23.886Z,6.35
2019-02-20T22:04:55.745Z,6.30
2019-02-20T22:07:49.904Z,6.62
2019-02-20T22:10:39.451Z,6.22
2019-02-20T22:13:17.102Z,5.90
2019-02-20T22:16:14.447Z,6.03
2019-02-20T22:18:46.265Z,7.20
2019-02-20T22:21:38.676Z,6.20
2019-02-20T22:24:10.573Z,6.37
2019-02-20T22:26:54.248Z,6.70
2019-02-20T22:29:26.093Z,6.67
2019-02-20T22:32:12.633Z,6.25
2019-02-20T22:34:55.932Z,7.03
2019-02-20T22:37:33.403Z,6.15
2019-02-20T22:40:05.259Z,6.50
2019-02-20T22:42:45.821Z,7.45
2019-02-20T22:45:43.099Z,6.75
2019-02-20T22:48:29.936Z,6.47
2019-02-20T22:51:10.172Z,7.60
2019-02-20T22:53:56.841Z,8.43
2019-02-20T22:56:50.930Z,7.92
2019-02-20T22:59:45.441Z,6.62
2019-02-20T23:02:26.307Z,6.95
2019-02-20T23:05:06.785Z,7.45
2019-02-20T23:07:44.571Z,6.50
2019-02-20T23:10:43.489Z,6.92
2019-02-20T23:13:21.083Z,5.90
2019-02-20T23:15:49.826Z,6.87
2019-02-20T23:18:18.571Z,6.47
2019-02-20T23:20:47.344Z,7.00
2019-02-20T23:23:16.110Z,6.70
2019-02-20T23:25:45.053Z,7.22
2019-02-20T23:28:13.894Z,6.80
2019-02-20T23:30:44.999Z,7.30
2019-02-20T23:33:13.137Z,7.50
2019-02-20T23:35:41.944Z,6.37
2019-02-20T23:38:11.004Z,5.87
2019-02-20T23:40:39.743Z,6.40
2019-02-20T23:43:08.525Z,7.45
2019-02-20T23:45:37.274Z,7.05
2019-02-20T23:48:06.088Z,7.12
2019-02-20T23:50:34.955Z,7.80
2019-02-20T23:53:03.811Z,8.08
2019-02-20T23:55:32.594Z,6.60
2019-02-20T23:58:01.358Z,6.35
